createdAt,value
2022-10-23T00:01:13.282Z,91.50
2022-10-23T00:03:41.070Z,91.60
2022-10-23T00:06:09.604Z,91.60
2022-10-23T00:08:37.537Z,91.50
2022-10-23T00:11:08.591Z,91.40
2022-10-23T00:13:38.098Z,91.50
2022-10-23T00:16:06.636Z,91.60
2022-10-23T00:18:34.719Z,91.60
2022-10-23T00:21:02.741Z,91.70
2022-10-23T00:23:30.702Z,91.60
2022-10-23T00:25:58.607Z,91.50
2022-10-23T00:28:26.536Z,91.70
2022-10-23T00:30:55.700Z,92.00
2022-10-23T00:33:23.470Z,91.50
2022-10-23T00:35:51.232Z,91.70
2022-10-23T00:38:19.012Z,91.70
2022-10-23T00:40:47.156Z,91.60
2022-10-23T00:43:19.637Z,91.70
2022-10-23T00:45:47.498Z,91.80
2022-10-23T00:48:17.364Z,91.80
2022-10-23T00:50:47.303Z,91.90
2022-10-23T00:53:17.730Z,92.10
2022-10-23T00:55:46.980Z,92.30
2022-10-23T00:58:15.632Z,92.00
2022-10-23T01:00:47.450Z,91.50
2022-10-23T01:03:18.603Z,91.50
2022-10-23T01:05:51.047Z,91.60
2022-10-23T01:08:26.645Z,91.70
2022-10-23T01:11:01.242Z,91.80
2022-10-23T01:13:38.211Z,92.00
2022-10-23T01:16:12.474Z,91.70
2022-10-23T01:18:47.341Z,92.20
2022-10-23T01:21:22.837Z,92.60
2022-10-23T01:24:08.820Z,92.60
2022-10-23T01:26:56.168Z,92.40
2022-10-23T01:29:32.447Z,92.00
2022-10-23T01:32:05.169Z,93.10
2022-10-23T01:34:41.329Z,92.40
2022-10-23T01:37:12.655Z,94.30
2022-10-23T01:39:47.727Z,91.60
2022-10-23T01:42:20.023Z,93.80
2022-10-23T01:44:52.542Z,92.90
2022-10-23T01:47:27.874Z,92.80
2022-10-23T01:50:06.269Z,93.00
2022-10-23T01:52:34.728Z,93.10
2022-10-23T01:55:06.665Z,92.30
2022-10-23T01:57:38.333Z,92.70
2022-10-23T02:00:10.935Z,93.00
2022-10-23T02:02:53.405Z,93.10
2022-10-23T02:05:27.117Z,93.30
2022-10-23T02:07:56.775Z,92.60
2022-10-23T02:10:31.504Z,92.80
2022-10-23T02:13:06.444Z,92.70
2022-10-23T02:15:40.457Z,92.50
2022-10-23T02:18:16.244Z,92.30
2022-10-23T02:20:48.373Z,92.20
2022-10-23T02:23:23.468Z,91.90
2022-10-23T02:25:55.911Z,92.90
2022-10-23T02:28:27.852Z,92.70
2022-10-23T02:31:02.924Z,92.80
2022-10-23T02:33:33.714Z,92.80
2022-10-23T02:36:01.533Z,93.20
2022-10-23T02:38:36.435Z,93.10
2022-10-23T02:41:25.937Z,92.90
2022-10-23T02:44:05.123Z,93.00
2022-10-23T02:46:43.699Z,93.10
2022-10-23T02:49:18.162Z,93.00
2022-10-23T02:51:58.244Z,92.70
2022-10-23T02:54:39.035Z,92.60
2022-10-23T02:57:16.866Z,92.80
2022-10-23T02:59:52.516Z,92.80
2022-10-23T03:02:25.896Z,92.90
2022-10-23T03:04:55.310Z,93.00
2022-10-23T03:07:23.422Z,92.90
2022-10-23T03:09:51.461Z,92.70
2022-10-23T03:12:19.232Z,92.90
2022-10-23T03:14:48.133Z,92.60
2022-10-23T03:17:16.164Z,93.10
2022-10-23T03:19:48.804Z,92.70
2022-10-23T03:22:16.583Z,93.40
2022-10-23T03:24:44.465Z,92.70
2022-10-23T03:27:12.266Z,93.00
2022-10-23T03:29:40.096Z,92.70
2022-10-23T03:32:07.985Z,92.90
2022-10-23T03:34:36.438Z,92.90
2022-10-23T03:37:07.123Z,92.90
2022-10-23T03:39:34.898Z,92.40
2022-10-23T03:42:02.737Z,92.50
2022-10-23T03:44:31.959Z,92.40
2022-10-23T03:46:59.771Z,92.10
2022-10-23T03:49:28.136Z,92.00
2022-10-23T03:52:02.658Z,92.00
2022-10-23T03:54:33.681Z,92.00
2022-10-23T03:57:01.977Z,92.00
2022-10-23T03:59:30.455Z,92.00
2022-10-23T04:01:59.732Z,91.80
2022-10-23T04:04:28.095Z,91.90
2022-10-23T04:06:55.902Z,91.70
2022-10-23T04:09:23.955Z,91.60
2022-10-23T04:11:53.121Z,91.80
2022-10-23T04:14:20.932Z,91.70
2022-10-23T04:16:48.724Z,91.60
2022-10-23T04:19:17.388Z,91.70
2022-10-23T04:21:45.251Z,91.80
2022-10-23T04:24:13.202Z,91.60
2022-10-23T04:26:41.048Z,91.50
2022-10-23T04:29:13.256Z,91.40
2022-10-23T04:31:41.369Z,91.50
2022-10-23T04:34:09.151Z,91.60
2022-10-23T04:36:37.179Z,91.70
2022-10-23T04:39:10.771Z,91.70
2022-10-23T04:41:38.810Z,91.50
2022-10-23T04:44:06.885Z,91.70
2022-10-23T04:46:39.595Z,91.40
2022-10-23T04:49:07.594Z,92.10
2022-10-23T04:52:01.072Z,91.30
2022-10-23T04:54:47.425Z,90.70
2022-10-23T04:57:32.539Z,93.20
2022-10-23T05:00:03.345Z,94.00
2022-10-23T05:02:39.278Z,94.30
2022-10-23T05:05:08.596Z,94.50
2022-10-23T05:07:36.909Z,94.80
2022-10-23T05:10:15.069Z,94.80
2022-10-23T05:12:54.611Z,95.40
2022-10-23T05:15:22.412Z,95.30
2022-10-23T05:17:57.843Z,93.70
2022-10-23T05:20:29.620Z,96.40
2022-10-23T05:23:00.456Z,95.60
2022-10-23T05:25:30.751Z,95.50
2022-10-23T05:28:06.058Z,95.00
2022-10-23T05:30:34.579Z,95.90
2022-10-23T05:33:05.215Z,97.00
2022-10-23T05:35:41.859Z,97.80
2022-10-23T05:38:10.247Z,98.40
2022-10-23T05:43:16.762Z,98.60
2022-10-23T05:45:51.165Z,97.80
2022-10-23T05:48:40.605Z,97.20
2022-10-23T05:51:30.009Z,97.40
2022-10-23T05:54:07.701Z,96.90
2022-10-23T05:56:53.856Z,97.30
2022-10-23T05:59:32.527Z,97.50
2022-10-23T06:02:21.567Z,97.60
2022-10-23T06:04:56.026Z,98.60
2022-10-23T06:07:42.808Z,98.60
2022-10-23T06:10:12.149Z,98.60
2022-10-23T06:12:46.207Z,97.70
2022-10-23T06:15:17.545Z,98.50
2022-10-23T06:18:06.524Z,98.00
2022-10-23T06:20:39.922Z,97.60
2022-10-23T06:23:16.529Z,97.40
2022-10-23T06:26:13.604Z,97.20
2022-10-23T06:29:07.646Z,97.20
2022-10-23T06:31:35.556Z,97.50
2022-10-23T06:34:05.948Z,97.00
2022-10-23T06:36:35.511Z,96.50
2022-10-23T06:39:14.961Z,96.00
2022-10-23T06:41:54.671Z,96.10
2022-10-23T06:44:41.263Z,96.20
2022-10-23T06:47:10.862Z,97.10
2022-10-23T06:50:17.395Z,96.70
2022-10-23T06:52:48.055Z,96.40
2022-10-23T06:55:18.908Z,96.70
2022-10-23T06:57:47.650Z,96.50
2022-10-23T07:00:16.079Z,96.80
2022-10-23T07:02:50.846Z,96.50
2022-10-23T07:05:18.962Z,96.20
2022-10-23T07:07:48.380Z,96.30
2022-10-23T07:10:22.606Z,96.40
2022-10-23T07:13:00.610Z,96.00
2022-10-23T07:15:48.832Z,95.90
2022-10-23T07:18:23.289Z,95.60
2022-10-23T07:21:13.938Z,95.80
2022-10-23T07:23:43.174Z,95.70
2022-10-23T07:26:15.159Z,95.80
2022-10-23T07:28:44.667Z,96.60
2022-10-23T07:31:14.081Z,98.20
2022-10-23T07:34:00.789Z,98.10
2022-10-23T07:36:28.640Z,99.80
2022-10-23T07:38:57.802Z,99.90
2022-10-23T07:41:26.188Z,99.90
2022-10-23T07:43:54.023Z,99.90
2022-10-23T07:46:21.855Z,99.90
2022-10-23T07:48:49.731Z,99.90
2022-10-23T07:51:17.922Z,99.90
2022-10-23T07:53:48.759Z,99.90
2022-10-23T07:56:34.392Z,99.90
2022-10-23T07:59:15.292Z,99.90
2022-10-23T08:01:51.459Z,99.90
2022-10-23T08:04:22.548Z,99.90
2022-10-23T08:07:03.101Z,99.90
2022-10-23T08:09:37.986Z,99.90
2022-10-23T08:12:07.660Z,99.90
2022-10-23T08:14:35.472Z,99.90
2022-10-23T08:17:04.733Z,99.90
2022-10-23T08:20:01.785Z,99.90
2022-10-23T08:22:37.109Z,99.90
2022-10-23T08:25:05.757Z,99.90
2022-10-23T08:27:34.884Z,99.90
2022-10-23T08:30:02.776Z,99.90
2022-10-23T08:32:31.201Z,99.90
2022-10-23T08:35:00.555Z,99.90
2022-10-23T08:37:31.473Z,99.90
2022-10-23T08:39:59.354Z,99.90
2022-10-23T08:43:02.251Z,99.90
2022-10-23T08:45:34.743Z,99.90
2022-10-23T08:48:33.990Z,99.90
2022-10-23T08:51:35.863Z,99.90
2022-10-23T08:54:09.147Z,99.90
2022-10-23T08:56:40.427Z,99.90
2022-10-23T08:59:20.462Z,99.90
2022-10-23T09:01:53.162Z,99.90
2022-10-23T09:04:21.077Z,99.90
2022-10-23T09:06:56.997Z,99.90
2022-10-23T09:09:47.723Z,97.40
2022-10-23T09:12:17.598Z,95.00
2022-10-23T09:15:03.464Z,95.90
2022-10-23T09:17:33.002Z,97.20
2022-10-23T09:20:11.663Z,98.20
2022-10-23T09:22:40.139Z,99.00
2022-10-23T09:25:11.225Z,98.50
2022-10-23T09:27:39.191Z,98.60
2022-10-23T09:30:10.001Z,98.70
2022-10-23T09:32:39.348Z,98.90
2022-10-23T09:35:21.533Z,98.60
2022-10-23T09:37:53.034Z,98.10
2022-10-23T09:40:33.305Z,97.60
2022-10-23T09:43:03.768Z,97.60
2022-10-23T09:45:35.194Z,97.70
2022-10-23T09:48:13.281Z,97.80
2022-10-23T09:50:48.996Z,98.10
2022-10-23T09:53:19.719Z,98.20
2022-10-23T09:55:53.936Z,98.40
2022-10-23T09:58:25.823Z,98.70
2022-10-23T10:00:55.491Z,98.80
2022-10-23T10:03:39.310Z,98.90
2022-10-23T10:06:23.778Z,98.20
2022-10-23T10:08:54.741Z,98.50
2022-10-23T10:11:28.948Z,98.50
2022-10-23T10:14:30.300Z,98.80
2022-10-23T10:17:04.510Z,99.20
2022-10-23T10:19:48.320Z,99.30
2022-10-23T10:22:26.869Z,99.00
2022-10-23T10:25:01.223Z,99.10
2022-10-23T10:27:42.544Z,98.80
2022-10-23T10:30:16.646Z,98.70
2022-10-23T10:32:51.114Z,98.90
2022-10-23T10:35:35.016Z,98.70
2022-10-23T10:38:19.587Z,98.70
2022-10-23T10:41:01.170Z,98.60
2022-10-23T10:43:41.347Z,98.60
2022-10-23T10:46:17.598Z,98.40
2022-10-23T10:48:50.684Z,98.30
2022-10-23T10:51:52.384Z,98.50
2022-10-23T10:54:37.651Z,98.40
2022-10-23T10:57:13.359Z,98.80
2022-10-23T10:59:45.148Z,99.10
2022-10-23T11:02:26.714Z,99.10
2022-10-23T11:05:01.470Z,99.40
2022-10-23T11:07:35.908Z,99.70
2022-10-23T11:10:14.226Z,99.70
2022-10-23T11:12:43.835Z,99.90
2022-10-23T11:15:16.892Z,99.90
2022-10-23T11:17:49.330Z,99.90
2022-10-23T11:20:39.855Z,99.90
2022-10-23T11:23:24.399Z,99.90
2022-10-23T11:26:04.140Z,99.90
2022-10-23T11:28:48.224Z,99.90
2022-10-23T11:31:26.284Z,99.90
2022-10-23T11:34:24.263Z,99.90
2022-10-23T11:36:55.286Z,99.90
2022-10-23T11:39:26.991Z,99.90
2022-10-23T11:42:00.469Z,99.90
2022-10-23T11:44:41.331Z,99.90
2022-10-23T11:47:28.586Z,99.90
2022-10-23T11:50:17.919Z,99.90
2022-10-23T11:53:12.802Z,99.90
2022-10-23T11:55:42.012Z,99.90
2022-10-23T11:58:22.223Z,99.90
2022-10-23T12:00:56.988Z,99.90
2022-10-23T12:03:30.516Z,99.90
2022-10-23T12:06:01.478Z,99.90
2022-10-23T12:08:33.395Z,99.90
2022-10-23T12:11:01.299Z,99.90
2022-10-23T12:13:46.802Z,99.90
2022-10-23T12:16:14.850Z,99.90
2022-10-23T12:18:47.750Z,99.90
2022-10-23T12:21:20.087Z,99.90
2022-10-23T12:24:13.437Z,99.90
2022-10-23T12:27:07.124Z,99.90
2022-10-23T12:29:59.350Z,99.90
2022-10-23T12:32:39.682Z,99.90
2022-10-23T12:35:22.117Z,99.90
2022-10-23T12:38:05.766Z,99.90
2022-10-23T12:40:34.965Z,99.90
2022-10-23T12:43:02.761Z,99.90
2022-10-23T12:45:33.800Z,99.90
2022-10-23T12:48:01.564Z,99.90
2022-10-23T12:50:30.850Z,99.90
2022-10-23T12:53:01.551Z,99.90
2022-10-23T12:55:35.172Z,99.90
2022-10-23T12:58:05.186Z,99.90
2022-10-23T13:00:32.967Z,99.90
2022-10-23T13:03:02.218Z,99.90
2022-10-23T13:05:31.157Z,99.60
2022-10-23T13:08:01.116Z,99.90
2022-10-23T13:10:42.548Z,99.90
2022-10-23T13:13:14.863Z,99.90
2022-10-23T13:15:44.676Z,99.70
2022-10-23T13:18:14.358Z,99.80
2022-10-23T13:20:44.443Z,99.70
2022-10-23T13:23:18.484Z,99.80
2022-10-23T13:25:55.656Z,99.50
2022-10-23T13:28:26.799Z,99.40
2022-10-23T13:31:25.390Z,99.20
2022-10-23T13:34:06.406Z,99.10
2022-10-23T13:36:39.369Z,99.80
2022-10-23T13:39:15.785Z,99.90
2022-10-23T13:41:45.536Z,99.60
2022-10-23T13:44:16.463Z,99.10
2022-10-23T13:46:45.115Z,98.70
2022-10-23T13:49:13.052Z,98.90
2022-10-23T13:51:44.868Z,98.30
2022-10-23T13:54:15.910Z,98.90
2022-10-23T13:56:43.848Z,98.70
2022-10-23T13:59:14.190Z,98.50
2022-10-23T14:01:43.323Z,98.50
2022-10-23T14:04:12.145Z,98.50
2022-10-23T14:06:40.407Z,98.70
2022-10-23T14:09:11.445Z,98.90
2022-10-23T14:11:39.786Z,99.10
2022-10-23T14:14:08.024Z,99.70
2022-10-23T14:16:37.349Z,99.90
2022-10-23T14:19:05.176Z,99.90
2022-10-23T14:21:32.966Z,99.90
2022-10-23T14:24:00.808Z,99.80
2022-10-23T14:26:30.191Z,99.60
2022-10-23T14:29:02.377Z,99.20
2022-10-23T14:31:34.795Z,98.70
2022-10-23T14:34:03.905Z,98.50
2022-10-23T14:36:38.873Z,98.50
2022-10-23T14:39:17.949Z,98.20
2022-10-23T14:41:45.903Z,98.20
2022-10-23T14:44:13.795Z,98.20
2022-10-23T14:46:41.612Z,98.30
2022-10-23T14:49:10.748Z,98.40
2022-10-23T14:51:38.635Z,98.50
2022-10-23T14:54:08.169Z,98.50
2022-10-23T14:56:39.331Z,99.00
2022-10-23T14:59:07.923Z,99.40
2022-10-23T15:01:42.261Z,99.50
2022-10-23T15:04:14.810Z,99.70
2022-10-23T15:06:43.126Z,99.20
2022-10-23T15:09:11.224Z,99.60
2022-10-23T15:11:39.106Z,99.90
2022-10-23T15:14:06.902Z,99.90
2022-10-23T15:16:40.942Z,99.30
2022-10-23T15:19:10.954Z,99.20
2022-10-23T15:21:42.847Z,98.50
2022-10-23T15:24:10.618Z,98.30
2022-10-23T15:26:38.563Z,98.30
2022-10-23T15:29:06.551Z,98.60
2022-10-23T15:31:46.931Z,98.80
2022-10-23T15:34:17.283Z,98.70
2022-10-23T15:36:48.008Z,99.30
2022-10-23T15:39:18.662Z,99.70
2022-10-23T15:41:47.141Z,99.80
2022-10-23T15:44:16.523Z,99.90
2022-10-23T15:46:44.736Z,99.90
2022-10-23T15:49:12.683Z,99.90
2022-10-23T15:51:41.157Z,99.60
2022-10-23T15:54:13.076Z,99.50
2022-10-23T15:56:40.858Z,99.80
2022-10-23T15:59:08.727Z,99.70
2022-10-23T16:01:36.688Z,99.90
2022-10-23T16:04:04.799Z,99.50
2022-10-23T16:06:32.610Z,99.80
2022-10-23T16:09:00.602Z,99.60
2022-10-23T16:11:32.923Z,99.70
2022-10-23T16:14:01.547Z,99.90
2022-10-23T16:16:31.842Z,99.90
2022-10-23T16:19:00.294Z,99.90
2022-10-23T16:21:30.624Z,99.90
2022-10-23T16:24:00.291Z,99.90
2022-10-23T16:26:30.726Z,99.90
2022-10-23T16:29:00.579Z,99.90
2022-10-23T16:31:29.562Z,99.90
2022-10-23T16:33:59.070Z,99.90
2022-10-23T16:36:27.039Z,99.90
2022-10-23T16:39:20.000Z,99.90
2022-10-23T16:42:08.227Z,99.90
2022-10-23T16:44:49.434Z,99.90
2022-10-23T16:47:17.190Z,99.90
2022-10-23T16:49:45.200Z,99.90
2022-10-23T16:52:12.987Z,99.90
2022-10-23T16:54:40.850Z,99.90
2022-10-23T16:57:09.939Z,99.90
2022-10-23T16:59:37.733Z,99.90
2022-10-23T17:02:05.825Z,99.90
2022-10-23T17:04:33.661Z,99.90
2022-10-23T17:07:01.446Z,99.90
2022-10-23T17:09:31.158Z,99.60
2022-10-23T17:11:59.846Z,99.10
2022-10-23T17:14:29.860Z,97.80
2022-10-23T17:17:00.996Z,97.20
2022-10-23T17:19:44.645Z,97.20
2022-10-23T17:22:14.024Z,98.30
2022-10-23T17:24:45.183Z,98.50
2022-10-23T17:27:15.412Z,98.10
2022-10-23T17:29:44.647Z,97.60
2022-10-23T17:32:12.435Z,97.50
2022-10-23T17:34:40.217Z,97.80
2022-10-23T17:37:08.880Z,98.50
2022-10-23T17:39:36.885Z,97.80
2022-10-23T17:42:04.875Z,97.70
2022-10-23T17:44:32.652Z,98.60
2022-10-23T17:47:01.771Z,98.00
2022-10-23T17:49:29.548Z,97.80
2022-10-23T17:51:58.912Z,99.00
2022-10-23T17:54:27.777Z,98.70
2022-10-23T17:56:55.719Z,99.90
2022-10-23T17:59:23.932Z,99.90
2022-10-23T18:01:51.902Z,99.90
2022-10-23T18:04:24.270Z,99.90
2022-10-23T18:06:54.205Z,99.90
2022-10-23T18:09:23.578Z,99.90
2022-10-23T18:11:51.601Z,99.90
2022-10-23T18:14:21.391Z,99.90
2022-10-23T18:16:49.580Z,99.90
2022-10-23T18:19:18.978Z,99.90
2022-10-23T18:21:48.846Z,99.90
2022-10-23T18:24:17.059Z,99.90
2022-10-23T18:26:45.909Z,99.90
2022-10-23T18:29:14.600Z,99.90
2022-10-23T18:31:42.736Z,99.90
2022-10-23T18:34:15.298Z,99.90
2022-10-23T18:36:43.154Z,99.90
2022-10-23T18:39:15.435Z,99.90
2022-10-23T18:41:45.551Z,99.90
2022-10-23T18:44:16.071Z,99.90
2022-10-23T18:46:44.389Z,99.90
2022-10-23T18:49:12.477Z,99.90
2022-10-23T18:51:40.356Z,99.90
2022-10-23T18:54:13.011Z,99.90
2022-10-23T18:56:40.997Z,99.90
2022-10-23T18:59:12.276Z,99.90
2022-10-23T19:01:40.263Z,99.90
2022-10-23T19:04:08.379Z,99.90
2022-10-23T19:06:37.196Z,99.90
2022-10-23T19:09:08.264Z,99.90
2022-10-23T19:11:37.861Z,99.90
2022-10-23T19:14:06.127Z,99.90
2022-10-23T19:16:38.191Z,99.90
2022-10-23T19:19:19.357Z,99.90
2022-10-23T19:21:48.175Z,99.90
2022-10-23T19:24:19.864Z,99.90
2022-10-23T19:26:49.990Z,99.90
2022-10-23T19:29:21.437Z,99.90
2022-10-23T19:31:50.008Z,99.90
2022-10-23T19:34:19.827Z,99.90
2022-10-23T19:36:48.185Z,99.90
2022-10-23T19:39:16.378Z,99.90
2022-10-23T19:41:44.468Z,99.90
2022-10-23T19:44:14.854Z,99.90
2022-10-23T19:46:42.656Z,99.90
2022-10-23T19:49:11.183Z,99.90
2022-10-23T19:51:39.361Z,99.90
2022-10-23T19:54:07.845Z,99.90
2022-10-23T19:56:37.326Z,99.90
2022-10-23T19:59:05.375Z,99.90
2022-10-23T20:01:35.604Z,99.90
2022-10-23T20:04:03.414Z,99.90
2022-10-23T20:06:34.472Z,99.90
2022-10-23T20:09:04.754Z,99.90
2022-10-23T20:11:32.903Z,99.90
2022-10-23T20:14:00.777Z,99.90
2022-10-23T20:16:30.803Z,99.90
2022-10-23T20:19:01.889Z,99.90
2022-10-23T20:21:30.111Z,99.90
2022-10-23T20:23:58.698Z,99.90
2022-10-23T20:26:26.568Z,99.90
2022-10-23T20:28:56.656Z,99.90
2022-10-23T20:31:26.067Z,99.90
2022-10-23T20:33:54.143Z,99.90
2022-10-23T20:36:27.871Z,99.90
2022-10-23T20:38:56.558Z,99.90
2022-10-23T20:41:26.931Z,99.90
2022-10-23T20:43:56.466Z,99.90
2022-10-23T20:46:24.552Z,99.90
2022-10-23T20:48:52.347Z,99.90
2022-10-23T20:51:21.798Z,99.90
2022-10-23T20:53:51.695Z,99.90
2022-10-23T20:56:23.171Z,99.90
2022-10-23T20:58:51.108Z,99.90
2022-10-23T21:01:19.313Z,99.90
2022-10-23T21:03:50.946Z,99.90
2022-10-23T21:06:20.353Z,99.90
2022-10-23T21:08:48.299Z,99.90
2022-10-23T21:11:18.608Z,99.90
2022-10-23T21:13:46.396Z,99.90
2022-10-23T21:16:16.083Z,99.90
2022-10-23T21:18:46.470Z,99.90
2022-10-23T21:21:16.953Z,99.90
2022-10-23T21:23:44.841Z,99.90
2022-10-23T21:26:13.359Z,99.90
2022-10-23T21:28:50.899Z,99.90
2022-10-23T21:31:29.275Z,99.90
2022-10-23T21:33:57.296Z,99.90
2022-10-23T21:36:25.477Z,99.90
2022-10-23T21:38:54.770Z,99.90
2022-10-23T21:41:24.656Z,99.90
2022-10-23T21:43:55.419Z,99.90
2022-10-23T21:46:25.573Z,99.90
2022-10-23T21:48:53.701Z,99.90
2022-10-23T21:51:24.143Z,99.90
2022-10-23T21:53:53.104Z,99.90
2022-10-23T21:56:31.964Z,99.90
2022-10-23T21:59:03.102Z,99.90
2022-10-23T22:01:31.292Z,99.90
2022-10-23T22:03:59.509Z,99.90
2022-10-23T22:06:29.278Z,99.90
2022-10-23T22:08:58.840Z,99.90
2022-10-23T22:11:28.141Z,99.90
2022-10-23T22:13:56.501Z,99.90
2022-10-23T22:16:25.632Z,99.90
2022-10-23T22:18:53.655Z,99.90
2022-10-23T22:21:23.353Z,99.90
2022-10-23T22:23:51.886Z,99.90
2022-10-23T22:26:23.407Z,99.90
2022-10-23T22:28:51.962Z,99.90
2022-10-23T22:31:22.230Z,99.90
2022-10-23T22:33:52.548Z,99.90
2022-10-23T22:36:21.050Z,99.90
2022-10-23T22:38:48.927Z,99.90
2022-10-23T22:41:17.036Z,99.90
2022-10-23T22:43:45.076Z,99.90
2022-10-23T22:46:14.565Z,99.90
2022-10-23T22:48:42.598Z,99.90
2022-10-23T22:51:13.118Z,99.90
2022-10-23T22:53:41.137Z,99.90
2022-10-23T22:56:11.193Z,99.90
2022-10-23T22:58:39.024Z,99.90
2022-10-23T23:01:10.543Z,99.90
2022-10-23T23:03:39.227Z,99.90
2022-10-23T23:06:08.210Z,99.90
2022-10-23T23:08:38.920Z,99.90
2022-10-23T23:11:08.200Z,99.90
2022-10-23T23:13:36.202Z,99.90
2022-10-23T23:16:04.537Z,99.90
2022-10-23T23:18:33.152Z,99.90
2022-10-23T23:21:02.143Z,99.90
2022-10-23T23:23:30.043Z,99.90
2022-10-23T23:25:59.280Z,99.90
2022-10-23T23:28:27.064Z,99.90
2022-10-23T23:31:03.995Z,99.90
2022-10-23T23:33:31.795Z,99.90
2022-10-23T23:35:59.708Z,99.90
2022-10-23T23:38:28.012Z,99.90
2022-10-23T23:40:55.797Z,99.90
2022-10-23T23:43:24.906Z,99.90
2022-10-23T23:45:52.687Z,99.90
2022-10-23T23:48:20.452Z,99.90
2022-10-23T23:50:48.383Z,99.90
2022-10-23T23:53:16.188Z,99.90
2022-10-23T23:58:16.902Z,99.90
